Mackinac Island, MI

7:24 PM EST on November 25, 2014 (GMT -0500)
Mackinac Island | Change Station
CLOSE
Current Station
Airport
Location: Mackinac Island,
Elevation: 741 ft
Nearby Weather Stations

Elev 741 ft 45.87 °N, 84.64 °W | Updated 8 minutes ago

Overcast
Overcast
26 °F
Feels Like 18 °F
N
8
Wind Variable Wind from NW
Gusts 16 mph

Today
High -- | Low -- °F
--% Chance of Precip.
Yesterday
High -- | Low -- °F
Precip. -- in
7:52 AM 4:58 PM
Waxing Crescent, 15% visible
Pressure 30.05 in
Visibility 10.0 miles
Clouds Overcast 3600 ft
Windchill 18 °F
Dew Point 19 °F
Humidity 73%
Rainfall 0.18 in
Snow Depth Not available.
UV 0 out of 12
Pollen .10 out of 12
Air Quality Not available.
Flu Activity Not available.
METAR KMCD 260016Z AUTO 32007G14KT 10SM OVC036 M03/M07 A3005 RMK AO2 T10321074

More Conditions Fewer Conditions

Pressure 30.05 in
Visibility 10.0 miles
Clouds Overcast 3600 ft
Windchill 18 °F
Dew Point 19 °F
Humidity 73%
Rainfall 0.18 in
Snow Depth Not available.
UV 0 out of 12
Pollen .10 out of 12
Air Quality Not available.
Flu Activity Not available.
METAR KMCD 260016Z AUTO 32007G14KT 10SM OVC036 M03/M07 A3005 RMK AO2 T10321074

More Conditions Fewer Conditions

Nowcast | as of 7:00 PM EST on November 25, 2014

At 8 PM...mostly cloudy. Scattered snow showers. Temperature 27. Northwest winds 8 mph. At 10 PM...mostly cloudy. Scattered snow showers. Temperature 26. West winds 7 mph. At 12 am...mostly cloudy. Scattered snow showers. Temperature 25. Light winds. At 2 am...mostly cloudy. Scattered snow showers. Temperature 25. Light winds.

×

10-Day Weather Forecast

Almanac

Astronomy

Nov. 25, 2014 Rise Set
Actual Time
Civil Twilight
Nautical Twilight
Astronomical Twilight
Moon
Length of Visible Light
Length of Day
Tomorrow will be .
, % of the Moon is Illuminated

Today's Extremes

State Highs State Lows

Community

WunderPhotos

Upload Photos

1,773,625 photos uploaded!

WunderBlogs® & News

Nearby

Air Quality

  Air Quality AQ Index Pollutant
Not available.

Snow Depth

Station Depth Elevation

Earthquake Activity

City Distance Mag. Time & Date
Minimum magnitude displayed is 2.5.

Coastal Water Temperatures

Place Temperature

Nearby Weather Stations